sensor_id;sensor_type;location;lat;lon;timestamp;P1;durP1;ratioP1;P2;durP2;ratioP2
18754;SDS011;35061;47.664;9.166;2024-03-02T00:01:07;11.80;;;8.32;;
18754;SDS011;35061;47.664;9.166;2024-03-02T00:03:38;10.10;;;8.57;;
18754;SDS011;35061;47.664;9.166;2024-03-02T00:06:06;10.35;;;7.53;;
18754;SDS011;35061;47.664;9.166;2024-03-02T00:08:35;10.82;;;7.65;;
18754;SDS011;35061;47.664;9.166;2024-03-02T00:11:03;10.43;;;7.87;;
18754;SDS011;35061;47.664;9.166;2024-03-02T00:13:31;9.77;;;7.18;;
18754;SDS011;35061;47.664;9.166;2024-03-02T00:16:01;12.00;;;9.07;;
18754;SDS011;35061;47.664;9.166;2024-03-02T00:21:02;12.15;;;7.87;;
18754;SDS011;35061;47.664;9.166;2024-03-02T00:23:31;11.57;;;8.15;;
18754;SDS011;35061;47.664;9.166;2024-03-02T00:26:00;11.95;;;8.38;;
18754;SDS011;35061;47.664;9.166;2024-03-02T00:28:30;9.27;;;7.68;;
18754;SDS011;35061;47.664;9.166;2024-03-02T00:31:08;12.20;;;7.47;;
18754;SDS011;35061;47.664;9.166;2024-03-02T00:33:43;9.40;;;7.72;;
18754;SDS011;35061;47.664;9.166;2024-03-02T00:36:16;9.07;;;7.32;;
18754;SDS011;35061;47.664;9.166;2024-03-02T00:38:50;9.48;;;6.95;;
18754;SDS011;35061;47.664;9.166;2024-03-02T00:41:27;9.60;;;6.78;;
18754;SDS011;35061;47.664;9.166;2024-03-02T00:44:01;7.93;;;6.50;;
18754;SDS011;35061;47.664;9.166;2024-03-02T00:46:37;7.55;;;6.40;;
18754;SDS011;35061;47.664;9.166;2024-03-02T00:51:51;10.10;;;7.43;;
18754;SDS011;35061;47.664;9.166;2024-03-02T00:54:22;8.93;;;7.28;;
18754;SDS011;35061;47.664;9.166;2024-03-02T00:56:53;11.15;;;8.05;;
18754;SDS011;35061;47.664;9.166;2024-03-02T00:59:23;11.82;;;8.80;;
18754;SDS011;35061;47.664;9.166;2024-03-02T01:01:50;10.98;;;8.45;;
18754;SDS011;35061;47.664;9.166;2024-03-02T01:04:19;11.30;;;8.57;;
18754;SDS011;35061;47.664;9.166;2024-03-02T01:06:47;12.90;;;9.70;;
18754;SDS011;35061;47.664;9.166;2024-03-02T01:09:15;12.43;;;9.60;;
18754;SDS011;35061;47.664;9.166;2024-03-02T01:11:45;15.45;;;10.65;;
18754;SDS011;35061;47.664;9.166;2024-03-02T01:14:13;14.87;;;10.75;;
18754;SDS011;35061;47.664;9.166;2024-03-02T01:16:41;16.37;;;11.07;;
18754;SDS011;35061;47.664;9.166;2024-03-02T01:19:09;16.62;;;11.07;;
18754;SDS011;35061;47.664;9.166;2024-03-02T01:21:37;15.45;;;11.23;;
18754;SDS011;35061;47.664;9.166;2024-03-02T01:24:05;16.87;;;10.48;;
18754;SDS011;35061;47.664;9.166;2024-03-02T01:26:33;16.73;;;11.38;;
18754;SDS011;35061;47.664;9.166;2024-03-02T01:29:01;17.83;;;11.35;;
18754;SDS011;35061;47.664;9.166;2024-03-02T01:31:30;14.63;;;10.57;;
18754;SDS011;35061;47.664;9.166;2024-03-02T01:33:58;15.35;;;10.93;;
18754;SDS011;35061;47.664;9.166;2024-03-02T01:36:26;19.30;;;12.23;;
18754;SDS011;35061;47.664;9.166;2024-03-02T01:38:54;19.67;;;12.02;;
18754;SDS011;35061;47.664;9.166;2024-03-02T01:41:22;19.50;;;11.00;;
18754;SDS011;35061;47.664;9.166;2024-03-02T01:43:50;18.15;;;12.40;;
18754;SDS011;35061;47.664;9.166;2024-03-02T01:46:18;19.02;;;11.88;;
18754;SDS011;35061;47.664;9.166;2024-03-02T01:48:46;27.02;;;14.18;;
18754;SDS011;35061;47.664;9.166;2024-03-02T01:51:15;18.77;;;12.07;;
18754;SDS011;35061;47.664;9.166;2024-03-02T01:53:43;17.77;;;11.75;;
18754;SDS011;35061;47.664;9.166;2024-03-02T01:56:11;18.17;;;11.63;;
18754;SDS011;35061;47.664;9.166;2024-03-02T01:58:39;29.60;;;13.93;;
18754;SDS011;35061;47.664;9.166;2024-03-02T02:01:07;28.65;;;13.05;;
18754;SDS011;35061;47.664;9.166;2024-03-02T02:03:37;21.52;;;12.15;;
18754;SDS011;35061;47.664;9.166;2024-03-02T02:06:06;28.58;;;13.35;;
18754;SDS011;35061;47.664;9.166;2024-03-02T02:08:36;31.45;;;14.27;;
18754;SDS011;35061;47.664;9.166;2024-03-02T02:11:05;30.58;;;14.35;;
18754;SDS011;35061;47.664;9.166;2024-03-02T02:13:34;25.12;;;12.27;;
18754;SDS011;35061;47.664;9.166;2024-03-02T02:16:06;18.95;;;11.75;;
18754;SDS011;35061;47.664;9.166;2024-03-02T02:18:35;23.73;;;11.98;;
18754;SDS011;35061;47.664;9.166;2024-03-02T02:21:05;32.90;;;12.98;;
18754;SDS011;35061;47.664;9.166;2024-03-02T02:23:33;20.62;;;11.75;;
18754;SDS011;35061;47.664;9.166;2024-03-02T02:26:01;23.23;;;12.80;;
18754;SDS011;35061;47.664;9.166;2024-03-02T02:28:31;19.00;;;12.23;;
18754;SDS011;35061;47.664;9.166;2024-03-02T02:30:59;21.95;;;12.85;;
18754;SDS011;35061;47.664;9.166;2024-03-02T02:33:27;19.75;;;13.23;;
18754;SDS011;35061;47.664;9.166;2024-03-02T02:35:56;26.40;;;13.68;;
18754;SDS011;35061;47.664;9.166;2024-03-02T02:38:24;41.53;;;14.07;;
18754;SDS011;35061;47.664;9.166;2024-03-02T02:40:52;40.47;;;13.25;;
18754;SDS011;35061;47.664;9.166;2024-03-02T02:43:21;29.80;;;13.35;;
18754;SDS011;35061;47.664;9.166;2024-03-02T02:45:49;35.33;;;12.45;;
18754;SDS011;35061;47.664;9.166;2024-03-02T02:48:17;38.40;;;13.05;;
18754;SDS011;35061;47.664;9.166;2024-03-02T02:50:45;31.00;;;11.65;;
18754;SDS011;35061;47.664;9.166;2024-03-02T02:53:13;39.15;;;13.15;;
18754;SDS011;35061;47.664;9.166;2024-03-02T02:55:41;31.80;;;11.65;;
18754;SDS011;35061;47.664;9.166;2024-03-02T02:58:11;29.63;;;11.68;;
18754;SDS011;35061;47.664;9.166;2024-03-02T03:00:39;50.85;;;13.07;;
18754;SDS011;35061;47.664;9.166;2024-03-02T03:03:08;34.42;;;12.23;;
18754;SDS011;35061;47.664;9.166;2024-03-02T03:05:36;28.42;;;12.65;;
18754;SDS011;35061;47.664;9.166;2024-03-02T03:08:04;38.25;;;12.40;;
18754;SDS011;35061;47.664;9.166;2024-03-02T03:10:32;32.65;;;12.93;;
18754;SDS011;35061;47.664;9.166;2024-03-02T03:13:00;25.55;;;11.52;;
18754;SDS011;35061;47.664;9.166;2024-03-02T03:15:29;32.13;;;11.68;;
18754;SDS011;35061;47.664;9.166;2024-03-02T03:17:57;18.45;;;10.80;;
18754;SDS011;35061;47.664;9.166;2024-03-02T03:20:25;21.55;;;10.80;;
18754;SDS011;35061;47.664;9.166;2024-03-02T03:22:53;19.85;;;10.65;;
18754;SDS011;35061;47.664;9.166;2024-03-02T03:25:21;21.95;;;9.73;;
18754;SDS011;35061;47.664;9.166;2024-03-02T03:27:49;19.33;;;9.85;;
18754;SDS011;35061;47.664;9.166;2024-03-02T03:30:20;20.62;;;11.27;;
18754;SDS011;35061;47.664;9.166;2024-03-02T03:32:48;18.67;;;10.88;;
18754;SDS011;35061;47.664;9.166;2024-03-02T03:35:16;20.12;;;11.95;;
18754;SDS011;35061;47.664;9.166;2024-03-02T03:37:46;20.58;;;10.80;;
18754;SDS011;35061;47.664;9.166;2024-03-02T03:40:14;21.42;;;10.50;;
18754;SDS011;35061;47.664;9.166;2024-03-02T03:42:42;16.08;;;10.95;;
18754;SDS011;35061;47.664;9.166;2024-03-02T03:45:10;22.42;;;11.38;;
18754;SDS011;35061;47.664;9.166;2024-03-02T03:47:38;16.45;;;11.10;;
18754;SDS011;35061;47.664;9.166;2024-03-02T03:50:06;19.35;;;10.40;;
18754;SDS011;35061;47.664;9.166;2024-03-02T03:52:35;15.02;;;9.25;;
18754;SDS011;35061;47.664;9.166;2024-03-02T03:55:03;15.10;;;9.88;;
18754;SDS011;35061;47.664;9.166;2024-03-02T03:57:33;22.95;;;10.93;;
18754;SDS011;35061;47.664;9.166;2024-03-02T04:00:02;16.27;;;9.52;;
18754;SDS011;35061;47.664;9.166;2024-03-02T04:02:31;17.33;;;11.07;;
18754;SDS011;35061;47.664;9.166;2024-03-02T04:04:59;15.27;;;10.63;;
18754;SDS011;35061;47.664;9.166;2024-03-02T04:07:27;15.23;;;9.60;;
18754;SDS011;35061;47.664;9.166;2024-03-02T04:09:55;14.23;;;10.10;;
18754;SDS011;35061;47.664;9.166;2024-03-02T04:12:23;15.18;;;10.55;;
18754;SDS011;35061;47.664;9.166;2024-03-02T04:14:51;16.98;;;10.30;;
18754;SDS011;35061;47.664;9.166;2024-03-02T04:17:19;11.60;;;7.97;;
18754;SDS011;35061;47.664;9.166;2024-03-02T04:19:47;13.30;;;9.77;;
18754;SDS011;35061;47.664;9.166;2024-03-02T04:22:15;16.80;;;9.00;;
18754;SDS011;35061;47.664;9.166;2024-03-02T04:24:50;18.50;;;9.43;;
18754;SDS011;35061;47.664;9.166;2024-03-02T04:27:19;19.62;;;9.43;;
18754;SDS011;35061;47.664;9.166;2024-03-02T04:29:47;15.07;;;9.05;;
18754;SDS011;35061;47.664;9.166;2024-03-02T04:32:15;29.33;;;9.75;;
18754;SDS011;35061;47.664;9.166;2024-03-02T04:34:43;19.60;;;8.80;;
18754;SDS011;35061;47.664;9.166;2024-03-02T04:37:11;22.85;;;9.80;;
18754;SDS011;35061;47.664;9.166;2024-03-02T04:39:42;18.25;;;8.35;;
18754;SDS011;35061;47.664;9.166;2024-03-02T04:42:11;18.35;;;9.40;;
18754;SDS011;35061;47.664;9.166;2024-03-02T04:44:39;16.27;;;9.00;;
18754;SDS011;35061;47.664;9.166;2024-03-02T04:47:07;17.17;;;10.07;;
18754;SDS011;35061;47.664;9.166;2024-03-02T04:49:35;16.60;;;9.75;;
18754;SDS011;35061;47.664;9.166;2024-03-02T04:52:04;19.70;;;8.50;;
18754;SDS011;35061;47.664;9.166;2024-03-02T04:54:32;16.10;;;9.73;;
18754;SDS011;35061;47.664;9.166;2024-03-02T04:57:00;12.07;;;9.48;;
18754;SDS011;35061;47.664;9.166;2024-03-02T05:01:57;15.30;;;8.50;;
18754;SDS011;35061;47.664;9.166;2024-03-02T05:04:26;13.05;;;9.45;;
18754;SDS011;35061;47.664;9.166;2024-03-02T05:06:54;37.88;;;10.52;;
18754;SDS011;35061;47.664;9.166;2024-03-02T05:09:24;17.80;;;9.30;;
18754;SDS011;35061;47.664;9.166;2024-03-02T05:11:52;22.08;;;8.55;;
18754;SDS011;35061;47.664;9.166;2024-03-02T05:14:50;22.48;;;9.57;;
18754;SDS011;35061;47.664;9.166;2024-03-02T05:17:18;21.90;;;9.57;;
18754;SDS011;35061;47.664;9.166;2024-03-02T05:19:46;22.92;;;9.13;;
18754;SDS011;35061;47.664;9.166;2024-03-02T05:22:15;25.30;;;10.02;;
18754;SDS011;35061;47.664;9.166;2024-03-02T05:24:43;21.90;;;10.50;;
18754;SDS011;35061;47.664;9.166;2024-03-02T05:27:11;18.40;;;9.15;;
18754;SDS011;35061;47.664;9.166;2024-03-02T05:29:39;35.30;;;10.88;;
18754;SDS011;35061;47.664;9.166;2024-03-02T05:32:07;36.80;;;10.90;;
18754;SDS011;35061;47.664;9.166;2024-03-02T05:34:35;26.12;;;10.30;;
18754;SDS011;35061;47.664;9.166;2024-03-02T05:37:03;19.23;;;9.52;;
18754;SDS011;35061;47.664;9.166;2024-03-02T05:39:31;22.58;;;9.85;;
18754;SDS011;35061;47.664;9.166;2024-03-02T05:41:59;26.58;;;10.48;;
18754;SDS011;35061;47.664;9.166;2024-03-02T05:44:27;25.80;;;10.35;;
18754;SDS011;35061;47.664;9.166;2024-03-02T05:46:55;21.65;;;10.68;;
18754;SDS011;35061;47.664;9.166;2024-03-02T05:49:23;18.90;;;10.63;;
18754;SDS011;35061;47.664;9.166;2024-03-02T05:51:51;21.45;;;10.30;;
18754;SDS011;35061;47.664;9.166;2024-03-02T05:54:19;22.05;;;9.85;;
18754;SDS011;35061;47.664;9.166;2024-03-02T05:56:47;29.48;;;11.63;;
18754;SDS011;35061;47.664;9.166;2024-03-02T05:59:15;19.98;;;10.73;;
18754;SDS011;35061;47.664;9.166;2024-03-02T06:01:45;20.55;;;10.75;;
18754;SDS011;35061;47.664;9.166;2024-03-02T06:04:14;23.10;;;10.35;;
18754;SDS011;35061;47.664;9.166;2024-03-02T06:06:42;21.73;;;10.00;;
18754;SDS011;35061;47.664;9.166;2024-03-02T06:09:10;20.42;;;10.48;;
18754;SDS011;35061;47.664;9.166;2024-03-02T06:11:42;20.33;;;10.05;;
18754;SDS011;35061;47.664;9.166;2024-03-02T06:14:10;34.28;;;11.35;;
18754;SDS011;35061;47.664;9.166;2024-03-02T06:16:37;17.92;;;10.70;;
18754;SDS011;35061;47.664;9.166;2024-03-02T06:19:06;18.60;;;10.07;;
18754;SDS011;35061;47.664;9.166;2024-03-02T06:21:34;18.05;;;9.95;;
18754;SDS011;35061;47.664;9.166;2024-03-02T06:24:02;24.90;;;10.10;;
18754;SDS011;35061;47.664;9.166;2024-03-02T06:26:31;25.45;;;9.48;;
18754;SDS011;35061;47.664;9.166;2024-03-02T06:28:59;26.92;;;9.85;;
18754;SDS011;35061;47.664;9.166;2024-03-02T06:31:27;35.67;;;10.65;;
18754;SDS011;35061;47.664;9.166;2024-03-02T06:33:55;24.95;;;9.32;;
18754;SDS011;35061;47.664;9.166;2024-03-02T06:36:23;22.58;;;9.25;;
18754;SDS011;35061;47.664;9.166;2024-03-02T06:38:51;20.65;;;8.65;;
18754;SDS011;35061;47.664;9.166;2024-03-02T06:41:19;33.38;;;9.98;;
18754;SDS011;35061;47.664;9.166;2024-03-02T06:43:47;22.87;;;8.57;;
18754;SDS011;35061;47.664;9.166;2024-03-02T06:46:16;16.50;;;7.90;;
18754;SDS011;35061;47.664;9.166;2024-03-02T06:48:44;11.57;;;7.47;;
18754;SDS011;35061;47.664;9.166;2024-03-02T06:51:12;12.18;;;7.15;;
18754;SDS011;35061;47.664;9.166;2024-03-02T06:53:40;9.65;;;6.72;;
18754;SDS011;35061;47.664;9.166;2024-03-02T06:56:08;7.37;;;6.28;;
18754;SDS011;35061;47.664;9.166;2024-03-02T06:58:36;8.30;;;5.75;;
18754;SDS011;35061;47.664;9.166;2024-03-02T07:01:04;8.32;;;6.68;;
18754;SDS011;35061;47.664;9.166;2024-03-02T07:03:33;13.10;;;7.30;;
18754;SDS011;35061;47.664;9.166;2024-03-02T07:06:01;9.90;;;6.80;;
18754;SDS011;35061;47.664;9.166;2024-03-02T07:08:29;25.52;;;7.30;;
18754;SDS011;35061;47.664;9.166;2024-03-02T07:10:57;11.12;;;5.70;;
18754;SDS011;35061;47.664;9.166;2024-03-02T07:13:25;13.98;;;6.78;;
18754;SDS011;35061;47.664;9.166;2024-03-02T07:15:53;17.42;;;6.15;;
18754;SDS011;35061;47.664;9.166;2024-03-02T07:18:30;12.88;;;6.25;;
18754;SDS011;35061;47.664;9.166;2024-03-02T07:20:59;10.98;;;6.18;;
18754;SDS011;35061;47.664;9.166;2024-03-02T07:23:28;9.15;;;6.62;;
18754;SDS011;35061;47.664;9.166;2024-03-02T07:25:57;8.55;;;6.70;;
18754;SDS011;35061;47.664;9.166;2024-03-02T07:28:30;8.07;;;6.37;;
18754;SDS011;35061;47.664;9.166;2024-03-02T07:31:03;9.93;;;6.87;;
18754;SDS011;35061;47.664;9.166;2024-03-02T07:33:33;10.70;;;7.37;;
18754;SDS011;35061;47.664;9.166;2024-03-02T07:36:01;8.70;;;7.40;;
18754;SDS011;35061;47.664;9.166;2024-03-02T07:38:31;13.23;;;8.32;;
18754;SDS011;35061;47.664;9.166;2024-03-02T07:41:01;36.38;;;10.15;;
18754;SDS011;35061;47.664;9.166;2024-03-02T07:43:30;27.52;;;9.20;;
18754;SDS011;35061;47.664;9.166;2024-03-02T07:46:00;28.12;;;9.10;;
18754;SDS011;35061;47.664;9.166;2024-03-02T07:48:28;22.60;;;9.73;;
18754;SDS011;35061;47.664;9.166;2024-03-02T07:50:57;41.50;;;11.00;;
18754;SDS011;35061;47.664;9.166;2024-03-02T07:53:25;31.15;;;10.13;;
18754;SDS011;35061;47.664;9.166;2024-03-02T07:55:53;37.80;;;10.75;;
18754;SDS011;35061;47.664;9.166;2024-03-02T07:58:22;52.10;;;12.35;;
18754;SDS011;35061;47.664;9.166;2024-03-02T08:00:50;36.08;;;12.95;;
18754;SDS011;35061;47.664;9.166;2024-03-02T08:03:20;71.97;;;12.70;;
18754;SDS011;35061;47.664;9.166;2024-03-02T08:05:48;49.28;;;12.27;;
18754;SDS011;35061;47.664;9.166;2024-03-02T08:08:17;41.10;;;12.05;;
18754;SDS011;35061;47.664;9.166;2024-03-02T08:10:45;32.33;;;11.85;;
18754;SDS011;35061;47.664;9.166;2024-03-02T08:13:13;36.08;;;12.13;;
18754;SDS011;35061;47.664;9.166;2024-03-02T08:15:41;38.45;;;11.50;;
18754;SDS011;35061;47.664;9.166;2024-03-02T08:18:09;24.45;;;12.10;;
18754;SDS011;35061;47.664;9.166;2024-03-02T08:20:38;24.25;;;10.95;;
18754;SDS011;35061;47.664;9.166;2024-03-02T08:23:06;21.55;;;10.63;;
18754;SDS011;35061;47.664;9.166;2024-03-02T08:25:35;19.48;;;11.18;;
18754;SDS011;35061;47.664;9.166;2024-03-02T08:28:05;22.45;;;10.63;;
18754;SDS011;35061;47.664;9.166;2024-03-02T08:30:35;18.67;;;10.68;;
18754;SDS011;35061;47.664;9.166;2024-03-02T08:33:04;31.15;;;11.80;;
18754;SDS011;35061;47.664;9.166;2024-03-02T08:35:33;16.05;;;10.25;;
18754;SDS011;35061;47.664;9.166;2024-03-02T08:41:17;22.77;;;11.55;;
18754;SDS011;35061;47.664;9.166;2024-03-02T08:43:46;23.33;;;12.10;;
18754;SDS011;35061;47.664;9.166;2024-03-02T08:46:15;31.20;;;12.27;;
18754;SDS011;35061;47.664;9.166;2024-03-02T08:48:55;20.77;;;11.85;;
18754;SDS011;35061;47.664;9.166;2024-03-02T08:51:24;16.70;;;11.15;;
18754;SDS011;35061;47.664;9.166;2024-03-02T08:53:53;15.13;;;10.35;;
18754;SDS011;35061;47.664;9.166;2024-03-02T08:56:21;13.80;;;9.75;;
18754;SDS011;35061;47.664;9.166;2024-03-02T09:05:02;15.10;;;9.80;;
18754;SDS011;35061;47.664;9.166;2024-03-02T09:07:31;14.55;;;10.10;;
18754;SDS011;35061;47.664;9.166;2024-03-02T09:10:00;28.58;;;11.52;;
18754;SDS011;35061;47.664;9.166;2024-03-02T09:12:29;18.50;;;10.45;;
18754;SDS011;35061;47.664;9.166;2024-03-02T09:15:17;18.35;;;10.77;;
18754;SDS011;35061;47.664;9.166;2024-03-02T09:17:46;24.10;;;13.15;;
18754;SDS011;35061;47.664;9.166;2024-03-02T09:20:14;16.23;;;10.73;;
18754;SDS011;35061;47.664;9.166;2024-03-02T09:22:44;16.62;;;10.75;;
18754;SDS011;35061;47.664;9.166;2024-03-02T09:25:15;17.17;;;10.93;;
18754;SDS011;35061;47.664;9.166;2024-03-02T09:27:43;14.38;;;10.23;;
18754;SDS011;35061;47.664;9.166;2024-03-02T09:30:12;16.58;;;10.57;;
18754;SDS011;35061;47.664;9.166;2024-03-02T09:32:41;13.85;;;10.60;;
18754;SDS011;35061;47.664;9.166;2024-03-02T09:35:12;14.98;;;10.85;;
18754;SDS011;35061;47.664;9.166;2024-03-02T09:37:40;16.30;;;10.75;;
18754;SDS011;35061;47.664;9.166;2024-03-02T09:40:08;14.20;;;10.57;;
18754;SDS011;35061;47.664;9.166;2024-03-02T09:42:37;15.45;;;11.40;;
18754;SDS011;35061;47.664;9.166;2024-03-02T09:45:06;14.50;;;9.35;;
18754;SDS011;35061;47.664;9.166;2024-03-02T09:47:35;11.00;;;9.00;;
18754;SDS011;35061;47.664;9.166;2024-03-02T09:50:03;12.50;;;9.73;;
18754;SDS011;35061;47.664;9.166;2024-03-02T09:52:31;17.52;;;10.68;;
18754;SDS011;35061;47.664;9.166;2024-03-02T09:55:00;15.73;;;10.95;;
18754;SDS011;35061;47.664;9.166;2024-03-02T09:57:28;14.25;;;10.35;;
18754;SDS011;35061;47.664;9.166;2024-03-02T09:59:57;14.65;;;10.02;;
18754;SDS011;35061;47.664;9.166;2024-03-02T10:02:25;15.60;;;9.77;;
18754;SDS011;35061;47.664;9.166;2024-03-02T10:04:53;14.27;;;9.82;;
18754;SDS011;35061;47.664;9.166;2024-03-02T10:07:21;14.75;;;11.82;;
18754;SDS011;35061;47.664;9.166;2024-03-02T10:09:50;13.15;;;9.88;;
18754;SDS011;35061;47.664;9.166;2024-03-02T10:12:19;14.10;;;10.00;;
18754;SDS011;35061;47.664;9.166;2024-03-02T10:14:48;12.30;;;8.95;;
18754;SDS011;35061;47.664;9.166;2024-03-02T10:17:25;10.93;;;8.80;;
18754;SDS011;35061;47.664;9.166;2024-03-02T10:20:20;13.48;;;9.10;;
18754;SDS011;35061;47.664;9.166;2024-03-02T10:26:48;9.10;;;7.37;;
18754;SDS011;35061;47.664;9.166;2024-03-02T10:29:18;10.18;;;7.85;;
18754;SDS011;35061;47.664;9.166;2024-03-02T10:31:47;10.35;;;7.80;;
18754;SDS011;35061;47.664;9.166;2024-03-02T10:34:15;9.20;;;7.32;;
18754;SDS011;35061;47.664;9.166;2024-03-02T10:36:46;9.27;;;7.18;;
18754;SDS011;35061;47.664;9.166;2024-03-02T10:39:16;10.82;;;7.50;;
18754;SDS011;35061;47.664;9.166;2024-03-02T10:45:01;10.27;;;8.82;;
18754;SDS011;35061;47.664;9.166;2024-03-02T10:47:29;8.88;;;7.55;;
18754;SDS011;35061;47.664;9.166;2024-03-02T10:50:00;8.43;;;7.53;;
18754;SDS011;35061;47.664;9.166;2024-03-02T10:52:30;11.50;;;7.20;;
18754;SDS011;35061;47.664;9.166;2024-03-02T10:54:58;10.93;;;8.00;;
18754;SDS011;35061;47.664;9.166;2024-03-02T10:57:26;9.48;;;7.18;;
18754;SDS011;35061;47.664;9.166;2024-03-02T11:00:07;9.65;;;7.82;;
18754;SDS011;35061;47.664;9.166;2024-03-02T11:02:42;9.80;;;7.68;;
18754;SDS011;35061;47.664;9.166;2024-03-02T11:05:27;11.00;;;8.50;;
18754;SDS011;35061;47.664;9.166;2024-03-02T11:08:00;11.90;;;8.13;;
18754;SDS011;35061;47.664;9.166;2024-03-02T11:10:35;12.55;;;7.65;;
18754;SDS011;35061;47.664;9.166;2024-03-02T11:13:09;12.27;;;8.55;;
18754;SDS011;35061;47.664;9.166;2024-03-02T11:15:43;13.05;;;8.75;;
18754;SDS011;35061;47.664;9.166;2024-03-02T11:18:13;11.32;;;8.90;;
18754;SDS011;35061;47.664;9.166;2024-03-02T11:20:43;10.93;;;8.32;;
18754;SDS011;35061;47.664;9.166;2024-03-02T11:23:12;10.85;;;8.35;;
18754;SDS011;35061;47.664;9.166;2024-03-02T11:25:41;10.60;;;8.00;;
18754;SDS011;35061;47.664;9.166;2024-03-02T11:28:09;10.32;;;8.45;;
18754;SDS011;35061;47.664;9.166;2024-03-02T11:33:07;10.43;;;7.12;;
18754;SDS011;35061;47.664;9.166;2024-03-02T11:35:42;10.05;;;7.45;;
18754;SDS011;35061;47.664;9.166;2024-03-02T11:38:15;11.68;;;8.32;;
18754;SDS011;35061;47.664;9.166;2024-03-02T11:40:46;11.60;;;8.60;;
18754;SDS011;35061;47.664;9.166;2024-03-02T11:43:15;9.95;;;8.13;;
18754;SDS011;35061;47.664;9.166;2024-03-02T11:45:44;13.07;;;7.53;;
18754;SDS011;35061;47.664;9.166;2024-03-02T11:48:16;10.35;;;8.18;;
18754;SDS011;35061;47.664;9.166;2024-03-02T11:50:47;11.77;;;8.63;;
18754;SDS011;35061;47.664;9.166;2024-03-02T11:53:17;13.13;;;8.60;;
18754;SDS011;35061;47.664;9.166;2024-03-02T11:55:46;10.35;;;8.18;;
18754;SDS011;35061;47.664;9.166;2024-03-02T11:58:17;10.30;;;7.93;;
18754;SDS011;35061;47.664;9.166;2024-03-02T12:00:50;10.93;;;8.43;;
18754;SDS011;35061;47.664;9.166;2024-03-02T12:03:21;11.90;;;8.55;;
18754;SDS011;35061;47.664;9.166;2024-03-02T12:05:56;10.07;;;7.45;;
18754;SDS011;35061;47.664;9.166;2024-03-02T12:08:24;9.68;;;7.90;;
18754;SDS011;35061;47.664;9.166;2024-03-02T12:10:59;10.27;;;8.30;;
18754;SDS011;35061;47.664;9.166;2024-03-02T12:13:30;10.23;;;7.75;;
18754;SDS011;35061;47.664;9.166;2024-03-02T12:15:59;10.02;;;7.87;;
18754;SDS011;35061;47.664;9.166;2024-03-02T12:18:27;10.93;;;7.85;;
18754;SDS011;35061;47.664;9.166;2024-03-02T12:20:55;8.48;;;6.68;;
18754;SDS011;35061;47.664;9.166;2024-03-02T12:23:27;9.55;;;7.70;;
18754;SDS011;35061;47.664;9.166;2024-03-02T12:25:55;8.57;;;6.35;;
18754;SDS011;35061;47.664;9.166;2024-03-02T12:28:24;7.72;;;6.47;;
18754;SDS011;35061;47.664;9.166;2024-03-02T12:30:52;9.23;;;7.32;;
18754;SDS011;35061;47.664;9.166;2024-03-02T12:33:20;9.40;;;7.40;;
18754;SDS011;35061;47.664;9.166;2024-03-02T12:35:49;9.07;;;7.40;;
18754;SDS011;35061;47.664;9.166;2024-03-02T12:38:17;9.32;;;7.10;;
18754;SDS011;35061;47.664;9.166;2024-03-02T12:40:49;8.60;;;7.18;;
18754;SDS011;35061;47.664;9.166;2024-03-02T12:43:19;10.40;;;7.78;;
18754;SDS011;35061;47.664;9.166;2024-03-02T12:45:47;9.80;;;7.35;;
18754;SDS011;35061;47.664;9.166;2024-03-02T12:48:15;8.70;;;6.75;;
18754;SDS011;35061;47.664;9.166;2024-03-02T12:50:43;9.98;;;6.75;;
18754;SDS011;35061;47.664;9.166;2024-03-02T12:53:14;9.65;;;7.50;;
18754;SDS011;35061;47.664;9.166;2024-03-02T12:55:43;8.07;;;6.65;;
18754;SDS011;35061;47.664;9.166;2024-03-02T12:58:18;10.55;;;7.60;;
18754;SDS011;35061;47.664;9.166;2024-03-02T13:00:48;7.55;;;6.45;;
18754;SDS011;35061;47.664;9.166;2024-03-02T13:03:20;7.62;;;6.47;;
18754;SDS011;35061;47.664;9.166;2024-03-02T13:05:50;6.50;;;5.75;;
18754;SDS011;35061;47.664;9.166;2024-03-02T13:08:19;5.95;;;5.18;;
18754;SDS011;35061;47.664;9.166;2024-03-02T13:10:47;7.05;;;5.97;;
18754;SDS011;35061;47.664;9.166;2024-03-02T13:13:16;7.72;;;5.87;;
18754;SDS011;35061;47.664;9.166;2024-03-02T13:15:45;6.00;;;5.32;;
18754;SDS011;35061;47.664;9.166;2024-03-02T13:18:13;7.12;;;5.78;;
18754;SDS011;35061;47.664;9.166;2024-03-02T13:20:42;6.78;;;5.70;;
18754;SDS011;35061;47.664;9.166;2024-03-02T13:23:10;6.68;;;5.35;;
18754;SDS011;35061;47.664;9.166;2024-03-02T13:25:38;7.80;;;5.87;;
18754;SDS011;35061;47.664;9.166;2024-03-02T13:28:06;7.72;;;5.85;;
18754;SDS011;35061;47.664;9.166;2024-03-02T13:30:35;7.40;;;5.97;;
18754;SDS011;35061;47.664;9.166;2024-03-02T13:33:03;6.28;;;5.53;;
18754;SDS011;35061;47.664;9.166;2024-03-02T13:35:31;6.68;;;5.12;;
18754;SDS011;35061;47.664;9.166;2024-03-02T13:38:00;5.32;;;4.22;;
18754;SDS011;35061;47.664;9.166;2024-03-02T13:40:28;6.72;;;4.40;;
18754;SDS011;35061;47.664;9.166;2024-03-02T13:42:57;4.87;;;3.67;;
18754;SDS011;35061;47.664;9.166;2024-03-02T13:45:26;4.97;;;4.43;;
18754;SDS011;35061;47.664;9.166;2024-03-02T13:47:55;4.20;;;3.62;;
18754;SDS011;35061;47.664;9.166;2024-03-02T13:50:24;4.25;;;3.53;;
18754;SDS011;35061;47.664;9.166;2024-03-02T13:52:53;7.18;;;3.50;;
18754;SDS011;35061;47.664;9.166;2024-03-02T13:55:21;3.78;;;3.30;;
18754;SDS011;35061;47.664;9.166;2024-03-02T13:57:49;3.37;;;3.08;;
18754;SDS011;35061;47.664;9.166;2024-03-02T14:00:18;4.93;;;3.42;;
18754;SDS011;35061;47.664;9.166;2024-03-02T14:32:00;3.08;;;2.37;;
18754;SDS011;35061;47.664;9.166;2024-03-02T14:34:29;4.65;;;2.42;;
18754;SDS011;35061;47.664;9.166;2024-03-02T14:36:57;2.85;;;2.30;;
18754;SDS011;35061;47.664;9.166;2024-03-02T14:39:26;3.25;;;2.42;;
18754;SDS011;35061;47.664;9.166;2024-03-02T14:41:55;2.95;;;2.42;;
18754;SDS011;35061;47.664;9.166;2024-03-02T14:44:23;2.42;;;2.22;;
18754;SDS011;35061;47.664;9.166;2024-03-02T14:46:52;2.90;;;2.42;;
18754;SDS011;35061;47.664;9.166;2024-03-02T14:49:20;1.92;;;1.77;;
18754;SDS011;35061;47.664;9.166;2024-03-02T14:51:49;2.92;;;2.62;;
18754;SDS011;35061;47.664;9.166;2024-03-02T14:54:21;2.53;;;2.20;;
18754;SDS011;35061;47.664;9.166;2024-03-02T14:59:55;2.67;;;2.40;;
18754;SDS011;35061;47.664;9.166;2024-03-02T15:02:26;4.87;;;2.35;;
18754;SDS011;35061;47.664;9.166;2024-03-02T15:04:56;2.60;;;2.20;;
18754;SDS011;35061;47.664;9.166;2024-03-02T15:07:25;2.85;;;2.53;;
18754;SDS011;35061;47.664;9.166;2024-03-02T15:09:57;4.68;;;3.05;;
18754;SDS011;35061;47.664;9.166;2024-03-02T15:12:26;3.47;;;2.10;;
18754;SDS011;35061;47.664;9.166;2024-03-02T15:14:55;2.33;;;1.87;;
18754;SDS011;35061;47.664;9.166;2024-03-02T15:17:24;4.12;;;2.12;;
18754;SDS011;35061;47.664;9.166;2024-03-02T15:19:54;2.08;;;1.87;;
18754;SDS011;35061;47.664;9.166;2024-03-02T15:22:22;2.40;;;2.10;;
18754;SDS011;35061;47.664;9.166;2024-03-02T15:24:53;2.55;;;2.10;;
18754;SDS011;35061;47.664;9.166;2024-03-02T15:27:22;2.78;;;2.08;;
18754;SDS011;35061;47.664;9.166;2024-03-02T15:29:50;3.55;;;2.08;;
18754;SDS011;35061;47.664;9.166;2024-03-02T15:41:56;2.55;;;2.10;;
18754;SDS011;35061;47.664;9.166;2024-03-02T15:44:25;2.95;;;2.03;;
18754;SDS011;35061;47.664;9.166;2024-03-02T15:46:54;1.85;;;1.67;;
18754;SDS011;35061;47.664;9.166;2024-03-02T15:49:22;2.00;;;1.80;;
18754;SDS011;35061;47.664;9.166;2024-03-02T15:51:50;2.10;;;1.87;;
18754;SDS011;35061;47.664;9.166;2024-03-02T15:54:18;2.83;;;1.90;;